createdAt,value
2023-04-28T00:00:38.251Z,1009.74
2023-04-28T00:01:38.251Z,1009.71
2023-04-28T00:02:38.268Z,1009.67
2023-04-28T00:03:38.354Z,1009.67
2023-04-28T00:04:38.320Z,1009.68
2023-04-28T00:05:38.279Z,1009.59
2023-04-28T00:06:38.220Z,1009.59
2023-04-28T00:07:38.170Z,1009.62
2023-04-28T00:08:39.332Z,1009.59
2023-04-28T00:09:38.245Z,1009.63
2023-04-28T00:10:38.168Z,1009.59
2023-04-28T00:11:38.121Z,1009.62
2023-04-28T00:12:38.222Z,1009.54
2023-04-28T00:13:38.098Z,1009.44
2023-04-28T00:14:38.098Z,1009.41
2023-04-28T00:15:38.073Z,1009.46
2023-04-28T00:16:38.196Z,1009.40
2023-04-28T00:17:38.158Z,1009.40
2023-04-28T00:18:38.074Z,1009.41
2023-04-28T00:19:38.034Z,1009.40
2023-04-28T00:20:38.036Z,1009.44
2023-04-28T00:21:38.088Z,1009.39
2023-04-28T00:22:38.031Z,1009.41
2023-04-28T00:23:37.987Z,1009.34
2023-04-28T00:24:37.986Z,1009.34
2023-04-28T00:25:37.983Z,1009.30
2023-04-28T00:26:37.949Z,1009.25
2023-04-28T00:27:37.968Z,1009.25
2023-04-28T00:28:37.948Z,1009.20
2023-04-28T00:29:37.922Z,1009.24
2023-04-28T00:30:37.988Z,1009.19
2023-04-28T00:31:37.975Z,1009.22
2023-04-28T00:32:37.940Z,1009.24
2023-04-28T00:33:37.878Z,1009.23
2023-04-28T00:34:37.867Z,1009.27
2023-04-28T00:35:37.861Z,1009.19
2023-04-28T00:36:37.931Z,1009.16
2023-04-28T00:37:37.877Z,1009.11
2023-04-28T00:38:37.881Z,1009.12
2023-04-28T00:39:37.808Z,1009.12
2023-04-28T00:40:37.807Z,1009.13
2023-04-28T00:41:37.805Z,1009.11
2023-04-28T00:42:37.815Z,1009.17
2023-04-28T00:43:37.779Z,1009.16
2023-04-28T00:44:39.281Z,1009.09
2023-04-28T00:45:37.850Z,1009.09
2023-04-28T00:46:37.789Z,1009.13
2023-04-28T00:47:37.789Z,1009.13
2023-04-28T00:48:37.784Z,1009.10
2023-04-28T00:49:37.700Z,1009.08
2023-04-28T00:50:37.695Z,1009.15
2023-04-28T00:51:37.694Z,1009.14
2023-04-28T00:52:37.701Z,1009.17
2023-04-28T00:53:37.676Z,1009.21
2023-04-28T00:54:37.680Z,1009.12
2023-04-28T00:55:37.677Z,1009.16
2023-04-28T00:56:37.641Z,1009.18
2023-04-28T00:57:37.619Z,1009.15
2023-04-28T00:58:37.616Z,1009.12
2023-04-28T00:59:37.584Z,1009.08
2023-04-28T01:00:37.630Z,1009.12
2023-04-28T01:01:37.659Z,1009.04
2023-04-28T01:02:38.630Z,1009.00
2023-04-28T01:03:37.743Z,1009.04
2023-04-28T01:04:37.731Z,1008.99
2023-04-28T01:05:37.526Z,1008.95
2023-04-28T01:06:37.566Z,1008.95
2023-04-28T01:07:37.525Z,1008.91
2023-04-28T01:08:37.531Z,1008.91
2023-04-28T01:09:37.498Z,1008.91
2023-04-28T01:10:37.483Z,1008.90
2023-04-28T01:11:37.472Z,1008.87
2023-04-28T01:12:37.494Z,1008.88
2023-04-28T01:13:37.447Z,1008.88
2023-04-28T01:14:37.466Z,1008.91
2023-04-28T01:15:39.376Z,1008.91
2023-04-28T01:16:37.456Z,1008.93
2023-04-28T01:17:37.478Z,1008.89
2023-04-28T01:18:37.395Z,1008.93
2023-04-28T01:19:37.380Z,1008.92
2023-04-28T01:20:37.363Z,1008.85
2023-04-28T01:21:37.346Z,1008.92
2023-04-28T01:22:37.344Z,1008.86
2023-04-28T01:23:37.370Z,1008.85
2023-04-28T01:24:37.319Z,1008.85
2023-04-28T01:25:37.298Z,1008.86
2023-04-28T01:26:37.295Z,1008.84
2023-04-28T01:27:37.283Z,1008.84
2023-04-28T01:28:37.279Z,1008.82
2023-04-28T01:29:37.289Z,1008.84
2023-04-28T01:30:37.254Z,1008.86
2023-04-28T01:31:37.374Z,1008.89
2023-04-28T01:32:37.360Z,1008.90
2023-04-28T01:33:37.920Z,1008.93
2023-04-28T01:34:37.242Z,1008.96
2023-04-28T01:35:38.345Z,1008.88
2023-04-28T01:36:38.653Z,1008.93
2023-04-28T01:37:37.178Z,1008.90
2023-04-28T01:38:37.160Z,1008.95
2023-04-28T01:39:37.318Z,1008.94
2023-04-28T01:40:37.159Z,1008.92
2023-04-28T01:41:37.129Z,1008.97
2023-04-28T01:42:37.130Z,1008.91
2023-04-28T01:43:37.507Z,1008.90
2023-04-28T01:44:37.092Z,1008.93
2023-04-28T01:45:37.107Z,1008.90
2023-04-28T01:46:37.221Z,1008.82
2023-04-28T01:47:37.907Z,1008.82
2023-04-28T01:48:37.038Z,1008.82
2023-04-28T01:49:37.300Z,1008.79
2023-04-28T01:50:37.017Z,1008.73
2023-04-28T01:51:38.543Z,1008.78
2023-04-28T01:52:37.038Z,1008.67
2023-04-28T01:53:37.013Z,1008.66
2023-04-28T01:54:37.580Z,1008.66
2023-04-28T01:55:37.003Z,1008.71
2023-04-28T01:56:37.274Z,1008.69
2023-04-28T01:57:36.950Z,1008.69
2023-04-28T01:58:36.929Z,1008.64
2023-04-28T01:59:36.960Z,1008.67
2023-04-28T02:00:36.927Z,1008.67
2023-04-28T02:01:36.921Z,1008.60
2023-04-28T02:02:37.070Z,1008.64
2023-04-28T02:03:38.112Z,1008.65
2023-04-28T02:04:36.902Z,1008.59
2023-04-28T02:05:37.891Z,1008.57
2023-04-28T02:06:36.958Z,1008.57
2023-04-28T02:07:36.841Z,1008.57
2023-04-28T02:08:36.851Z,1008.54
2023-04-28T02:09:36.817Z,1008.56
2023-04-28T02:10:36.922Z,1008.54
2023-04-28T02:11:36.819Z,1008.53
2023-04-28T02:12:36.775Z,1008.49
2023-04-28T02:13:36.818Z,1008.45
2023-04-28T02:14:36.754Z,1008.48
2023-04-28T02:15:36.830Z,1008.43
2023-04-28T02:16:36.750Z,1008.44
2023-04-28T02:17:36.936Z,1008.47
2023-04-28T02:18:36.714Z,1008.37
2023-04-28T02:19:36.719Z,1008.39
2023-04-28T02:20:36.717Z,1008.42
2023-04-28T02:21:36.684Z,1008.34
2023-04-28T02:22:38.160Z,1008.42
2023-04-28T02:23:36.660Z,1008.44
2023-04-28T02:24:37.473Z,1008.41
2023-04-28T02:25:36.639Z,1008.41
2023-04-28T02:26:36.706Z,1008.43
2023-04-28T02:27:37.391Z,1008.42
2023-04-28T02:28:36.642Z,1008.44
2023-04-28T02:29:36.802Z,1008.43
2023-04-28T02:30:37.552Z,1008.53
2023-04-28T02:31:36.622Z,1008.47
2023-04-28T02:32:36.938Z,1008.52
2023-04-28T02:33:38.535Z,1008.53
2023-04-28T02:34:36.525Z,1008.54
2023-04-28T02:35:37.996Z,1008.54
2023-04-28T02:36:36.780Z,1008.54
2023-04-28T02:37:36.967Z,1008.53
2023-04-28T02:38:37.945Z,1008.49
2023-04-28T02:39:36.472Z,1008.52
2023-04-28T02:40:36.458Z,1008.50
2023-04-28T02:41:36.460Z,1008.47
2023-04-28T02:42:36.476Z,1008.50
2023-04-28T02:43:37.378Z,1008.50
2023-04-28T02:44:37.878Z,1008.48
2023-04-28T02:45:37.003Z,1008.48
2023-04-28T02:46:38.396Z,1008.45
2023-04-28T02:47:36.442Z,1008.47
2023-04-28T02:48:36.395Z,1008.38
2023-04-28T02:49:36.367Z,1008.36
2023-04-28T02:50:37.312Z,1008.37
2023-04-28T02:51:36.360Z,1008.34
2023-04-28T02:52:36.332Z,1008.36
2023-04-28T02:53:36.328Z,1008.40
2023-04-28T02:54:36.399Z,1008.45
2023-04-28T02:55:36.309Z,1008.38
2023-04-28T02:56:36.290Z,1008.36
2023-04-28T02:57:36.288Z,1008.36
2023-04-28T02:58:37.712Z,1008.36
2023-04-28T02:59:36.244Z,1008.32
2023-04-28T03:00:36.272Z,1008.38
2023-04-28T03:01:36.298Z,1008.32
2023-04-28T03:02:36.317Z,1008.39
2023-04-28T03:03:36.402Z,1008.41
2023-04-28T03:04:36.266Z,1008.36
2023-04-28T03:05:36.562Z,1008.39
2023-04-28T03:06:36.212Z,1008.35
2023-04-28T03:07:36.585Z,1008.37
2023-04-28T03:08:36.864Z,1008.32
2023-04-28T03:09:36.139Z,1008.40
2023-04-28T03:10:36.139Z,1008.30
2023-04-28T03:11:36.140Z,1008.24
2023-04-28T03:12:36.108Z,1008.33
2023-04-28T03:13:36.102Z,1008.23
2023-04-28T03:14:36.090Z,1008.30
2023-04-28T03:15:36.106Z,1008.24
2023-04-28T03:16:36.179Z,1008.22
2023-04-28T03:17:36.110Z,1008.20
2023-04-28T03:18:36.057Z,1008.16
2023-04-28T03:19:36.053Z,1008.18
2023-04-28T03:20:36.038Z,1008.16
2023-04-28T03:21:35.999Z,1008.20
2023-04-28T03:22:36.018Z,1008.21
2023-04-28T03:23:35.979Z,1008.19
2023-04-28T03:24:35.987Z,1008.15
2023-04-28T03:25:35.969Z,1008.12
2023-04-28T03:26:35.939Z,1008.08
2023-04-28T03:27:35.978Z,1008.01
2023-04-28T03:28:36.121Z,1007.96
2023-04-28T03:29:35.919Z,1007.92
2023-04-28T03:30:35.933Z,1007.98
2023-04-28T03:31:35.946Z,1007.92
2023-04-28T03:32:35.911Z,1007.96
2023-04-28T03:33:35.866Z,1007.92
2023-04-28T03:34:35.867Z,1007.93
2023-04-28T03:35:35.852Z,1007.88
2023-04-28T03:36:35.874Z,1007.89
2023-04-28T03:37:35.842Z,1007.80
2023-04-28T03:38:35.804Z,1007.83
2023-04-28T03:39:35.799Z,1007.76
2023-04-28T03:40:35.808Z,1007.74
2023-04-28T03:41:35.777Z,1007.78
2023-04-28T03:42:35.788Z,1007.76
2023-04-28T03:43:35.759Z,1007.73
2023-04-28T03:44:36.785Z,1007.75
2023-04-28T03:45:35.883Z,1007.66
2023-04-28T03:46:35.721Z,1007.73
2023-04-28T03:47:35.722Z,1007.70
2023-04-28T03:48:35.986Z,1007.69
2023-04-28T03:49:35.728Z,1007.73
2023-04-28T03:50:35.682Z,1007.70
2023-04-28T03:51:35.729Z,1007.68
2023-04-28T03:52:35.665Z,1007.66
2023-04-28T03:53:35.668Z,1007.65
2023-04-28T03:54:35.662Z,1007.63
2023-04-28T03:55:35.654Z,1007.61
2023-04-28T03:56:35.621Z,1007.58
2023-04-28T03:57:35.625Z,1007.50
2023-04-28T03:58:35.599Z,1007.43
2023-04-28T03:59:35.584Z,1007.37
2023-04-28T04:00:35.595Z,1007.36
2023-04-28T04:01:35.571Z,1007.39
2023-04-28T04:02:35.691Z,1007.33
2023-04-28T04:03:35.715Z,1007.35
2023-04-28T04:04:35.826Z,1007.28
2023-04-28T04:05:35.539Z,1007.30
2023-04-28T04:06:35.607Z,1007.13
2023-04-28T04:07:35.501Z,1007.16
2023-04-28T04:08:35.627Z,1007.15
2023-04-28T04:09:35.479Z,1007.11
2023-04-28T04:10:35.492Z,1007.19
2023-04-28T04:11:35.472Z,1007.31
2023-04-28T04:12:36.265Z,1007.33
2023-04-28T04:13:35.434Z,1007.35
2023-04-28T04:14:35.459Z,1007.39
2023-04-28T04:15:35.474Z,1007.43
2023-04-28T04:16:35.442Z,1007.35
2023-04-28T04:17:35.431Z,1007.31
2023-04-28T04:18:35.392Z,1007.42
2023-04-28T04:19:35.378Z,1007.33
2023-04-28T04:20:35.356Z,1007.39
2023-04-28T04:21:35.341Z,1007.47
2023-04-28T04:22:35.365Z,1007.54
2023-04-28T04:23:35.324Z,1007.56
2023-04-28T04:24:35.299Z,1007.56
2023-04-28T04:25:35.307Z,1007.57
2023-04-28T04:26:35.892Z,1007.52
2023-04-28T04:27:35.267Z,1007.46
2023-04-28T04:28:36.250Z,1007.40
2023-04-28T04:29:36.224Z,1007.38
2023-04-28T04:30:35.236Z,1007.39
2023-04-28T04:31:35.651Z,1007.41
2023-04-28T04:32:35.265Z,1007.44
2023-04-28T04:33:35.210Z,1007.44
2023-04-28T04:34:35.221Z,1007.44
2023-04-28T04:35:35.168Z,1007.43
2023-04-28T04:36:35.174Z,1007.40
2023-04-28T04:37:35.184Z,1007.41
2023-04-28T04:38:35.198Z,1007.34
2023-04-28T04:39:35.165Z,1007.30
2023-04-28T04:40:35.133Z,1007.31
2023-04-28T04:41:36.603Z,1007.32
2023-04-28T04:42:35.111Z,1007.34
2023-04-28T04:43:35.122Z,1007.34
2023-04-28T04:44:35.120Z,1007.33
2023-04-28T04:45:35.083Z,1007.36
2023-04-28T04:46:36.580Z,1007.29
2023-04-28T04:47:35.084Z,1007.35
2023-04-28T04:48:35.987Z,1007.26
2023-04-28T04:49:35.066Z,1007.32
2023-04-28T04:50:35.078Z,1007.27
2023-04-28T04:51:35.043Z,1007.30
2023-04-28T04:52:35.134Z,1007.25
2023-04-28T04:53:34.975Z,1007.23
2023-04-28T04:54:34.972Z,1007.26
2023-04-28T04:55:34.989Z,1007.21
2023-04-28T04:56:37.408Z,1007.21
2023-04-28T04:57:34.950Z,1007.16
2023-04-28T04:58:35.047Z,1007.26
2023-04-28T04:59:34.914Z,1007.26
2023-04-28T05:00:34.902Z,1007.25
2023-04-28T05:01:34.978Z,1007.29
2023-04-28T05:02:35.040Z,1007.20
2023-04-28T05:03:35.076Z,1007.26
2023-04-28T05:04:34.940Z,1007.21
2023-04-28T05:05:35.220Z,1007.24
2023-04-28T05:06:35.792Z,1007.26
2023-04-28T05:07:34.830Z,1007.21
2023-04-28T05:08:34.838Z,1007.25
2023-04-28T05:09:34.793Z,1007.21
2023-04-28T05:10:35.163Z,1007.31
2023-04-28T05:11:34.852Z,1007.21
2023-04-28T05:12:34.920Z,1007.20
2023-04-28T05:13:35.049Z,1007.21
2023-04-28T05:14:34.758Z,1007.19
2023-04-28T05:15:34.745Z,1007.21
2023-04-28T05:16:35.112Z,1007.22
2023-04-28T05:17:34.814Z,1007.19
2023-04-28T05:18:34.715Z,1007.25
2023-04-28T05:19:34.709Z,1007.14
2023-04-28T05:20:34.677Z,1007.13
2023-04-28T05:21:34.735Z,1007.13
2023-04-28T05:22:36.691Z,1007.12
2023-04-28T05:23:34.668Z,1007.07
2023-04-28T05:24:34.624Z,1007.05
2023-04-28T05:25:34.628Z,1007.07
2023-04-28T05:26:35.153Z,1007.06
2023-04-28T05:27:35.601Z,1007.05
2023-04-28T05:28:34.780Z,1007.00
2023-04-28T05:29:34.603Z,1006.96
2023-04-28T05:30:34.705Z,1006.99
2023-04-28T05:31:34.598Z,1006.99
2023-04-28T05:32:34.665Z,1006.97
2023-04-28T05:33:34.527Z,1006.92
2023-04-28T05:34:34.608Z,1006.89
2023-04-28T05:35:34.570Z,1006.93
2023-04-28T05:36:34.496Z,1007.00
2023-04-28T05:37:34.479Z,1006.97
2023-04-28T05:38:34.492Z,1006.95
2023-04-28T05:39:34.497Z,1006.99
2023-04-28T05:40:34.455Z,1006.98
2023-04-28T05:41:34.429Z,1007.03
2023-04-28T05:42:34.430Z,1007.03
2023-04-28T05:43:34.488Z,1007.09
2023-04-28T05:44:34.436Z,1007.06
2023-04-28T05:45:34.437Z,1007.01
2023-04-28T05:46:34.549Z,1007.03
2023-04-28T05:47:34.434Z,1007.02
2023-04-28T05:48:34.552Z,1007.04
2023-04-28T05:49:34.359Z,1006.97
2023-04-28T05:50:34.349Z,1007.07
2023-04-28T05:51:34.353Z,1007.04
2023-04-28T05:52:34.375Z,1007.03
2023-04-28T05:53:35.277Z,1007.05
2023-04-28T05:54:34.294Z,1007.03
2023-04-28T05:55:34.279Z,1007.00
2023-04-28T05:56:34.299Z,1007.04
2023-04-28T05:57:42.092Z,1007.04
2023-04-28T05:58:36.775Z,1007.04
2023-04-28T05:59:34.235Z,1007.01
2023-04-28T06:00:34.240Z,1007.00
2023-04-28T06:01:34.235Z,1007.04
2023-04-28T06:02:34.363Z,1006.99
2023-04-28T06:03:34.382Z,1006.97
2023-04-28T06:04:34.448Z,1006.95
2023-04-28T06:05:34.433Z,1006.90
2023-04-28T06:06:34.221Z,1006.89
2023-04-28T06:07:34.157Z,1006.91
2023-04-28T06:08:34.127Z,1006.93
2023-04-28T06:09:34.170Z,1006.85
2023-04-28T06:10:34.102Z,1006.85
2023-04-28T06:11:34.092Z,1006.81
2023-04-28T06:12:34.124Z,1006.77
2023-04-28T06:13:34.094Z,1006.81
2023-04-28T06:14:34.933Z,1006.81
2023-04-28T06:15:34.122Z,1006.78
2023-04-28T06:16:34.681Z,1006.78
2023-04-28T06:17:35.526Z,1006.85
2023-04-28T06:18:35.583Z,1006.86
2023-04-28T06:19:34.055Z,1006.79
2023-04-28T06:20:34.032Z,1006.74
2023-04-28T06:21:34.012Z,1006.76
2023-04-28T06:22:33.996Z,1006.72
2023-04-28T06:23:33.976Z,1006.74
2023-04-28T06:24:33.970Z,1006.73
2023-04-28T06:25:34.112Z,1006.73
2023-04-28T06:26:33.938Z,1006.70
2023-04-28T06:27:33.939Z,1006.70
2023-04-28T06:28:35.423Z,1006.72
2023-04-28T06:29:33.931Z,1006.75
2023-04-28T06:30:33.903Z,1006.74
2023-04-28T06:31:34.803Z,1006.77
2023-04-28T06:32:33.916Z,1006.73
2023-04-28T06:33:33.855Z,1006.79
2023-04-28T06:34:34.831Z,1006.79
2023-04-28T06:35:33.924Z,1006.80
2023-04-28T06:36:35.777Z,1006.84
2023-04-28T06:37:34.679Z,1006.80
2023-04-28T06:38:35.258Z,1006.86
2023-04-28T06:39:35.246Z,1006.78
2023-04-28T06:40:35.303Z,1006.81
2023-04-28T06:41:34.600Z,1006.82
2023-04-28T06:42:34.742Z,1006.86
2023-04-28T06:43:33.746Z,1006.84
2023-04-28T06:44:36.256Z,1006.82
2023-04-28T06:45:33.818Z,1006.80
2023-04-28T06:46:33.835Z,1006.77
2023-04-28T06:47:33.711Z,1006.76
2023-04-28T06:48:35.146Z,1006.77
2023-04-28T06:49:33.996Z,1006.75
2023-04-28T06:50:34.635Z,1006.78
2023-04-28T06:51:33.655Z,1006.76
2023-04-28T06:52:38.900Z,1006.71
2023-04-28T06:53:34.781Z,1006.73
2023-04-28T06:54:33.731Z,1006.66
2023-04-28T06:55:34.679Z,1006.63
2023-04-28T06:56:35.096Z,1006.61
2023-04-28T06:57:34.162Z,1006.63
2023-04-28T06:58:33.614Z,1006.63
2023-04-28T06:59:33.653Z,1006.59
2023-04-28T07:00:33.597Z,1006.64
2023-04-28T07:01:33.549Z,1006.62
2023-04-28T07:02:33.617Z,1006.64
2023-04-28T07:03:33.584Z,1006.69
2023-04-28T07:04:34.988Z,1006.63
2023-04-28T07:05:34.494Z,1006.66
2023-04-28T07:06:33.535Z,1006.58
2023-04-28T07:07:33.486Z,1006.60
2023-04-28T07:08:34.965Z,1006.65
2023-04-28T07:09:33.458Z,1006.64
2023-04-28T07:10:34.155Z,1006.69
2023-04-28T07:11:33.692Z,1006.69
2023-04-28T07:12:33.960Z,1006.74
2023-04-28T07:13:34.905Z,1006.72
2023-04-28T07:14:34.017Z,1006.67
2023-04-28T07:15:34.245Z,1006.64
2023-04-28T07:16:33.996Z,1006.63
2023-04-28T07:17:33.398Z,1006.65
2023-04-28T07:18:33.366Z,1006.66
2023-04-28T07:19:33.339Z,1006.64
2023-04-28T07:20:33.384Z,1006.66
2023-04-28T07:21:33.357Z,1006.56
2023-04-28T07:22:33.954Z,1006.59
2023-04-28T07:23:33.561Z,1006.52
2023-04-28T07:24:33.354Z,1006.57
2023-04-28T07:25:33.305Z,1006.57
2023-04-28T07:26:33.919Z,1006.56
2023-04-28T07:27:33.581Z,1006.60
2023-04-28T07:28:33.442Z,1006.61
2023-04-28T07:29:33.292Z,1006.59
2023-04-28T07:30:33.288Z,1006.61
2023-04-28T07:31:35.317Z,1006.61
2023-04-28T07:32:33.768Z,1006.61
2023-04-28T07:33:33.294Z,1006.57
2023-04-28T07:34:33.223Z,1006.56
2023-04-28T07:35:33.178Z,1006.57
2023-04-28T07:36:33.185Z,1006.67
2023-04-28T07:37:33.274Z,1006.60
2023-04-28T07:38:33.208Z,1006.65
2023-04-28T07:39:33.135Z,1006.67
2023-04-28T07:40:33.149Z,1006.72
2023-04-28T07:41:33.106Z,1006.72
2023-04-28T07:42:33.110Z,1006.80
2023-04-28T07:43:33.116Z,1006.82
2023-04-28T07:44:33.071Z,1006.85
2023-04-28T07:45:33.194Z,1006.83
2023-04-28T07:46:33.143Z,1006.92
2023-04-28T07:47:33.114Z,1006.86
2023-04-28T07:48:33.103Z,1006.86
2023-04-28T07:49:33.038Z,1006.85
2023-04-28T07:50:33.141Z,1006.82
2023-04-28T07:51:32.998Z,1006.77
2023-04-28T07:52:32.994Z,1006.82
2023-04-28T07:53:32.966Z,1006.73
2023-04-28T07:54:34.161Z,1006.79
2023-04-28T07:55:32.956Z,1006.82
2023-04-28T07:56:32.972Z,1006.84
2023-04-28T07:57:32.962Z,1006.85
2023-04-28T07:58:32.926Z,1006.82
2023-04-28T07:59:32.917Z,1006.81
2023-04-28T08:00:32.888Z,1006.78
2023-04-28T08:01:32.894Z,1006.83
2023-04-28T08:02:34.646Z,1006.74
2023-04-28T08:03:33.059Z,1006.75
2023-04-28T08:04:33.094Z,1006.78
2023-04-28T08:05:33.158Z,1006.79
2023-04-28T08:06:32.829Z,1006.77
2023-04-28T08:07:32.817Z,1006.72
2023-04-28T08:08:32.810Z,1006.74
2023-04-28T08:09:32.779Z,1006.65
2023-04-28T08:10:32.800Z,1006.60
2023-04-28T08:11:32.760Z,1006.59
2023-04-28T08:12:33.723Z,1006.58
2023-04-28T08:13:32.740Z,1006.57
2023-04-28T08:14:32.777Z,1006.61
2023-04-28T08:15:32.736Z,1006.55
2023-04-28T08:16:34.188Z,1006.55
2023-04-28T08:17:32.728Z,1006.54
2023-04-28T08:18:32.710Z,1006.53
2023-04-28T08:19:32.718Z,1006.51
2023-04-28T08:20:32.763Z,1006.40
2023-04-28T08:21:32.659Z,1006.50
2023-04-28T08:22:32.678Z,1006.51
2023-04-28T08:23:32.649Z,1006.51
2023-04-28T08:24:32.624Z,1006.60
2023-04-28T08:25:32.646Z,1006.63
2023-04-28T08:26:32.591Z,1006.67
2023-04-28T08:27:32.593Z,1006.68
2023-04-28T08:28:32.584Z,1006.76
2023-04-28T08:29:32.591Z,1006.69
2023-04-28T08:30:33.994Z,1006.72
2023-04-28T08:31:32.619Z,1006.72
2023-04-28T08:32:32.567Z,1006.73
2023-04-28T08:33:34.034Z,1006.66
2023-04-28T08:34:32.526Z,1006.66
2023-04-28T08:35:32.503Z,1006.66
2023-04-28T08:36:32.544Z,1006.67
2023-04-28T08:37:32.488Z,1006.70
2023-04-28T08:38:33.983Z,1006.65
2023-04-28T08:39:32.444Z,1006.67
2023-04-28T08:40:32.450Z,1006.70
2023-04-28T08:41:32.446Z,1006.64
2023-04-28T08:42:33.870Z,1006.64
2023-04-28T08:43:32.425Z,1006.62
2023-04-28T08:44:32.406Z,1006.70
2023-04-28T08:45:32.373Z,1006.64
2023-04-28T08:46:32.386Z,1006.65
2023-04-28T08:47:32.385Z,1006.68
2023-04-28T08:48:32.385Z,1006.65
2023-04-28T08:49:32.360Z,1006.64
2023-04-28T08:50:32.339Z,1006.70
2023-04-28T08:51:32.323Z,1006.66
2023-04-28T08:52:33.270Z,1006.67
2023-04-28T08:53:32.398Z,1006.65
2023-04-28T08:54:32.908Z,1006.64
2023-04-28T08:55:32.306Z,1006.61
2023-04-28T08:56:32.274Z,1006.62
2023-04-28T08:57:32.263Z,1006.64
2023-04-28T08:58:32.257Z,1006.66
2023-04-28T08:59:32.277Z,1006.68
2023-04-28T09:00:32.212Z,1006.67
2023-04-28T09:01:32.407Z,1006.69
2023-04-28T09:02:32.333Z,1006.70
2023-04-28T09:03:32.411Z,1006.68
2023-04-28T09:04:32.271Z,1006.72
2023-04-28T09:05:32.337Z,1006.62
2023-04-28T09:06:32.174Z,1006.65
2023-04-28T09:07:32.187Z,1006.60
2023-04-28T09:08:32.321Z,1006.59
2023-04-28T09:09:36.238Z,1006.60
2023-04-28T09:10:32.142Z,1006.60
2023-04-28T09:11:32.119Z,1006.56
2023-04-28T09:12:32.101Z,1006.57
2023-04-28T09:13:32.133Z,1006.54
2023-04-28T09:14:32.057Z,1006.63
2023-04-28T09:15:33.966Z,1006.65
2023-04-28T09:16:32.105Z,1006.62
2023-04-28T09:17:32.098Z,1006.64
2023-04-28T09:18:32.038Z,1006.66
2023-04-28T09:19:32.000Z,1006.61
2023-04-28T09:20:32.060Z,1006.61
2023-04-28T09:21:31.990Z,1006.66
2023-04-28T09:22:32.027Z,1006.65
2023-04-28T09:23:31.964Z,1006.70
2023-04-28T09:24:31.977Z,1006.63
2023-04-28T09:25:31.948Z,1006.64
2023-04-28T09:26:31.965Z,1006.68
2023-04-28T09:27:32.873Z,1006.67
2023-04-28T09:28:31.909Z,1006.64
2023-04-28T09:29:31.900Z,1006.64
2023-04-28T09:30:31.923Z,1006.62
2023-04-28T09:31:31.913Z,1006.63
2023-04-28T09:32:32.113Z,1006.62
2023-04-28T09:33:31.862Z,1006.66
2023-04-28T09:34:31.851Z,1006.64
2023-04-28T09:35:31.854Z,1006.67
2023-04-28T09:36:31.869Z,1006.62
2023-04-28T09:37:31.909Z,1006.68
2023-04-28T09:38:31.842Z,1006.65
2023-04-28T09:39:31.839Z,1006.64
2023-04-28T09:40:31.804Z,1006.64
2023-04-28T09:41:31.778Z,1006.61
2023-04-28T09:42:31.783Z,1006.62
2023-04-28T09:43:31.919Z,1006.61
2023-04-28T09:44:32.736Z,1006.60
2023-04-28T09:45:33.931Z,1006.61
2023-04-28T09:46:31.810Z,1006.60
2023-04-28T09:47:31.772Z,1006.57
2023-04-28T09:48:31.704Z,1006.55
2023-04-28T09:49:31.686Z,1006.53
2023-04-28T09:50:31.682Z,1006.49
2023-04-28T09:51:31.721Z,1006.49
2023-04-28T09:52:31.654Z,1006.50
2023-04-28T09:53:31.694Z,1006.52
2023-04-28T09:54:31.657Z,1006.47
2023-04-28T09:55:31.649Z,1006.47
2023-04-28T09:56:31.617Z,1006.44
2023-04-28T09:57:31.626Z,1006.39
2023-04-28T09:58:31.599Z,1006.41
2023-04-28T09:59:31.612Z,1006.36
2023-04-28T10:00:31.577Z,1006.42
2023-04-28T10:01:31.631Z,1006.40
2023-04-28T10:02:43.234Z,1006.41
2023-04-28T10:03:32.866Z,1006.44
2023-04-28T10:04:31.862Z,1006.49
2023-04-28T10:05:31.753Z,1006.46
2023-04-28T10:06:31.528Z,1006.51
2023-04-28T10:07:31.499Z,1006.50
2023-04-28T10:08:31.483Z,1006.48
2023-04-28T10:09:31.513Z,1006.52
2023-04-28T10:10:31.473Z,1006.54
2023-04-28T10:11:32.414Z,1006.47
2023-04-28T10:12:31.793Z,1006.48
2023-04-28T10:13:31.445Z,1006.46
2023-04-28T10:14:31.444Z,1006.49
2023-04-28T10:15:31.494Z,1006.46
2023-04-28T10:16:32.265Z,1006.50
2023-04-28T10:17:32.089Z,1006.50
2023-04-28T10:18:31.400Z,1006.49
2023-04-28T10:19:31.396Z,1006.48
2023-04-28T10:20:31.381Z,1006.51
2023-04-28T10:21:31.374Z,1006.51
2023-04-28T10:22:31.370Z,1006.50
2023-04-28T10:23:32.110Z,1006.47
2023-04-28T10:24:31.322Z,1006.48
2023-04-28T10:25:31.335Z,1006.52
2023-04-28T10:26:31.339Z,1006.50
2023-04-28T10:27:31.289Z,1006.47
2023-04-28T10:28:31.372Z,1006.43
2023-04-28T10:29:31.249Z,1006.45
2023-04-28T10:30:31.378Z,1006.47
2023-04-28T10:31:32.722Z,1006.46
2023-04-28T10:32:31.465Z,1006.46
2023-04-28T10:33:31.214Z,1006.47
2023-04-28T10:34:31.507Z,1006.49
2023-04-28T10:35:31.190Z,1006.49
2023-04-28T10:36:36.328Z,1006.50
2023-04-28T10:37:31.169Z,1006.46
2023-04-28T10:38:31.153Z,1006.50
2023-04-28T10:39:31.144Z,1006.51
2023-04-28T10:40:31.141Z,1006.54
2023-04-28T10:41:31.118Z,1006.51
2023-04-28T10:42:31.123Z,1006.50
2023-04-28T10:43:31.232Z,1006.52
2023-04-28T10:44:31.088Z,1006.47
2023-04-28T10:45:31.087Z,1006.45
2023-04-28T10:46:32.036Z,1006.44
2023-04-28T10:47:31.098Z,1006.46
2023-04-28T10:48:31.061Z,1006.43
2023-04-28T10:49:31.034Z,1006.48
2023-04-28T10:50:38.880Z,1006.47
2023-04-28T10:51:32.090Z,1006.47
2023-04-28T10:52:31.980Z,1006.43
2023-04-28T10:53:30.979Z,1006.53
2023-04-28T10:54:31.150Z,1006.53
2023-04-28T10:55:30.962Z,1006.51
2023-04-28T10:56:30.985Z,1006.55
2023-04-28T10:57:32.178Z,1006.51
2023-04-28T10:58:30.930Z,1006.51
2023-04-28T10:59:30.917Z,1006.49
2023-04-28T11:00:30.898Z,1006.54
2023-04-28T11:01:30.995Z,1006.52
2023-04-28T11:02:31.054Z,1006.53
2023-04-28T11:03:31.213Z,1006.49
2023-04-28T11:04:30.901Z,1006.50
2023-04-28T11:05:30.851Z,1006.52
2023-04-28T11:06:30.826Z,1006.50
2023-04-28T11:07:30.837Z,1006.49
2023-04-28T11:08:30.857Z,1006.47
2023-04-28T11:09:30.811Z,1006.47
2023-04-28T11:10:30.784Z,1006.46
2023-04-28T11:11:30.814Z,1006.46
2023-04-28T11:12:30.777Z,1006.48
2023-04-28T11:13:31.752Z,1006.51
2023-04-28T11:14:34.732Z,1006.48
2023-04-28T11:15:30.775Z,1006.47
2023-04-28T11:16:30.821Z,1006.46
2023-04-28T11:17:30.780Z,1006.44
2023-04-28T11:18:31.747Z,1006.53
2023-04-28T11:19:30.792Z,1006.45
2023-04-28T11:20:30.672Z,1006.44
2023-04-28T11:21:30.683Z,1006.47
2023-04-28T11:22:30.653Z,1006.44
2023-04-28T11:23:30.805Z,1006.38
2023-04-28T11:24:30.634Z,1006.43
2023-04-28T11:25:30.657Z,1006.43
2023-04-28T11:26:30.606Z,1006.43
2023-04-28T11:27:30.609Z,1006.39
2023-04-28T11:28:30.603Z,1006.45
2023-04-28T11:29:30.616Z,1006.41
2023-04-28T11:30:30.604Z,1006.39
2023-04-28T11:31:30.579Z,1006.37
2023-04-28T11:32:30.604Z,1006.42
2023-04-28T11:33:30.563Z,1006.42
2023-04-28T11:34:30.527Z,1006.46
2023-04-28T11:35:30.535Z,1006.39
2023-04-28T11:36:30.501Z,1006.45
2023-04-28T11:37:30.533Z,1006.46
2023-04-28T11:38:30.473Z,1006.50
2023-04-28T11:39:30.475Z,1006.47
2023-04-28T11:40:31.434Z,1006.52
2023-04-28T11:41:30.458Z,1006.50
2023-04-28T11:42:30.456Z,1006.46
2023-04-28T11:43:43.718Z,1006.49
2023-04-28T11:44:31.396Z,1006.45
2023-04-28T11:45:30.451Z,1006.41
2023-04-28T11:46:30.534Z,1006.44
2023-04-28T11:47:30.498Z,1006.42
2023-04-28T11:48:30.406Z,1006.45
2023-04-28T11:49:31.840Z,1006.39
2023-04-28T11:50:30.351Z,1006.39
2023-04-28T11:51:30.364Z,1006.39
2023-04-28T11:52:30.376Z,1006.49
2023-04-28T11:53:30.351Z,1006.43
2023-04-28T11:54:31.837Z,1006.45
2023-04-28T11:55:30.314Z,1006.46
2023-04-28T11:56:30.291Z,1006.43
2023-04-28T11:57:30.291Z,1006.45
2023-04-28T11:58:30.402Z,1006.43
2023-04-28T11:59:30.263Z,1006.45
2023-04-28T12:00:30.241Z,1006.43
2023-04-28T12:01:30.225Z,1006.42
2023-04-28T12:02:30.414Z,1006.34
2023-04-28T12:03:30.316Z,1006.37
2023-04-28T12:04:30.203Z,1006.36
2023-04-28T12:05:30.234Z,1006.41